sensor_id;sensor_type;location;lat;lon;timestamp;pressure;altitude;pressure_sealevel;temperature;humidity
63808;BME280;49961;43.970;22.868;2024-03-22T00:00:51;101784.63;;;9.53;100.00
63808;BME280;49961;43.970;22.868;2024-03-22T00:01:52;101729.31;;;9.07;100.00
63808;BME280;49961;43.970;22.868;2024-03-22T00:02:53;101832.44;;;9.71;100.00
63808;BME280;49961;43.970;22.868;2024-03-22T00:03:54;101799.63;;;9.52;100.00
63808;BME280;49961;43.970;22.868;2024-03-22T00:04:54;101827.28;;;9.69;100.00
63808;BME280;49961;43.970;22.868;2024-03-22T00:05:54;101804.38;;;9.55;100.00
63808;BME280;49961;43.970;22.868;2024-03-22T00:06:55;101740.38;;;9.11;100.00
63808;BME280;49961;43.970;22.868;2024-03-22T00:07:55;101822.56;;;9.66;100.00
63808;BME280;49961;43.970;22.868;2024-03-22T00:08:56;101828.50;;;9.68;100.00
63808;BME280;49961;43.970;22.868;2024-03-22T00:09:57;101718.69;;;8.88;100.00
63808;BME280;49961;43.970;22.868;2024-03-22T00:10:57;101742.00;;;9.12;100.00
63808;BME280;49961;43.970;22.868;2024-03-22T00:11:57;101832.47;;;9.64;100.00
63808;BME280;49961;43.970;22.868;2024-03-22T00:12:58;101824.53;;;9.62;100.00
63808;BME280;49961;43.970;22.868;2024-03-22T00:13:58;101824.53;;;9.62;100.00
63808;BME280;49961;43.970;22.868;2024-03-22T00:14:59;101834.81;;;9.62;100.00
63808;BME280;49961;43.970;22.868;2024-03-22T00:15:59;101838.38;;;9.62;100.00
63808;BME280;49961;43.970;22.868;2024-03-22T00:17:00;101821.38;;;9.50;100.00
63808;BME280;49961;43.970;22.868;2024-03-22T00:18:00;101834.03;;;9.61;100.00
63808;BME280;49961;43.970;22.868;2024-03-22T00:19:01;101832.47;;;9.60;100.00
63808;BME280;49961;43.970;22.868;2024-03-22T00:20:02;101797.69;;;9.35;100.00
63808;BME280;49961;43.970;22.868;2024-03-22T00:21:02;101818.25;;;9.30;100.00
63808;BME280;49961;43.970;22.868;2024-03-22T00:22:03;101843.16;;;9.48;100.00
63808;BME280;49961;43.970;22.868;2024-03-22T00:23:04;101717.88;;;8.74;100.00
63808;BME280;49961;43.970;22.868;2024-03-22T00:24:04;101837.59;;;9.48;100.00
63808;BME280;49961;43.970;22.868;2024-03-22T00:25:05;101561.44;;;7.75;100.00
63808;BME280;49961;43.970;22.868;2024-03-22T00:26:07;101717.06;;;8.66;100.00
63808;BME280;49961;43.970;22.868;2024-03-22T00:27:08;101805.19;;;9.24;100.00
63808;BME280;49961;43.970;22.868;2024-03-22T00:28:09;101822.97;;;9.30;100.00
63808;BME280;49961;43.970;22.868;2024-03-22T00:29:10;101840.34;;;9.41;100.00
63808;BME280;49961;43.970;22.868;2024-03-22T00:30:10;101792.53;;;9.12;100.00
63808;BME280;49961;43.970;22.868;2024-03-22T00:31:11;101793.72;;;9.08;100.00
63808;BME280;49961;43.970;22.868;2024-03-22T00:32:11;101754.59;;;8.81;100.00
63808;BME280;49961;43.970;22.868;2024-03-22T00:33:12;101836.81;;;9.37;100.00
63808;BME280;49961;43.970;22.868;2024-03-22T00:34:12;101843.94;;;9.34;100.00
63808;BME280;49961;43.970;22.868;2024-03-22T00:35:13;101836.41;;;9.35;100.00
63808;BME280;49961;43.970;22.868;2024-03-22T00:36:13;101790.56;;;9.02;100.00
63808;BME280;49961;43.970;22.868;2024-03-22T00:37:15;101819.78;;;9.21;100.00
63808;BME280;49961;43.970;22.868;2024-03-22T00:38:15;101771.19;;;8.81;100.00
63808;BME280;49961;43.970;22.868;2024-03-22T00:39:16;101845.50;;;9.28;100.00
63808;BME280;49961;43.970;22.868;2024-03-22T00:40:17;101765.22;;;8.72;100.00
63808;BME280;49961;43.970;22.868;2024-03-22T00:41:18;101849.06;;;9.29;100.00
63808;BME280;49961;43.970;22.868;2024-03-22T00:42:18;101807.13;;;9.02;100.00
63808;BME280;49961;43.970;22.868;2024-03-22T00:43:20;101849.06;;;9.25;100.00
63808;BME280;49961;43.970;22.868;2024-03-22T00:44:21;101850.25;;;9.24;100.00
63808;BME280;49961;43.970;22.868;2024-03-22T00:45:21;101826.09;;;9.11;100.00
63808;BME280;49961;43.970;22.868;2024-03-22T00:46:22;101746.28;;;8.53;100.00
63808;BME280;49961;43.970;22.868;2024-03-22T00:47:22;101852.22;;;9.17;100.00
63808;BME280;49961;43.970;22.868;2024-03-22T00:48:23;101714.63;;;8.30;100.00
63808;BME280;49961;43.970;22.868;2024-03-22T00:49:23;101816.59;;;8.84;100.00
63808;BME280;49961;43.970;22.868;2024-03-22T00:50:24;101724.47;;;8.24;100.00
63808;BME280;49961;43.970;22.868;2024-03-22T00:51:28;101640.28;;;7.72;100.00
63808;BME280;49961;43.970;22.868;2024-03-22T00:52:28;101862.44;;;9.06;100.00
63808;BME280;49961;43.970;22.868;2024-03-22T00:53:29;101733.59;;;8.35;100.00
63808;BME280;49961;43.970;22.868;2024-03-22T00:54:30;101791.28;;;8.68;100.00
63808;BME280;49961;43.970;22.868;2024-03-22T00:55:31;101824.88;;;8.80;100.00
63808;BME280;49961;43.970;22.868;2024-03-22T00:56:31;101858.47;;;9.00;100.00
63808;BME280;49961;43.970;22.868;2024-03-22T00:57:32;101772.28;;;8.38;100.00
63808;BME280;49961;43.970;22.868;2024-03-22T00:58:32;101863.63;;;8.98;100.00
63808;BME280;49961;43.970;22.868;2024-03-22T00:59:33;101805.09;;;8.64;100.00
63808;BME280;49961;43.970;22.868;2024-03-22T01:00:33;101831.59;;;8.76;100.00
63808;BME280;49961;43.970;22.868;2024-03-22T01:01:34;101775.03;;;8.38;100.00
63808;BME280;49961;43.970;22.868;2024-03-22T01:02:35;101836.31;;;8.75;100.00
63808;BME280;49961;43.970;22.868;2024-03-22T01:03:35;101774.63;;;8.36;100.00
63808;BME280;49961;43.970;22.868;2024-03-22T01:04:36;101858.88;;;8.91;100.00
63808;BME280;49961;43.970;22.868;2024-03-22T01:05:36;101814.16;;;8.58;100.00
63808;BME280;49961;43.970;22.868;2024-03-22T01:06:37;101864.78;;;8.86;100.00
63808;BME280;49961;43.970;22.868;2024-03-22T01:07:40;101866.34;;;8.87;100.00
63808;BME280;49961;43.970;22.868;2024-03-22T01:08:40;101857.66;;;8.82;100.00
63808;BME280;49961;43.970;22.868;2024-03-22T01:09:41;101576.09;;;6.97;100.00
63808;BME280;49961;43.970;22.868;2024-03-22T01:10:42;101861.19;;;8.79;100.00
63808;BME280;49961;43.970;22.868;2024-03-22T01:11:42;101711.25;;;7.79;100.00
63808;BME280;49961;43.970;22.868;2024-03-22T01:12:43;101865.16;;;8.81;100.00
63808;BME280;49961;43.970;22.868;2024-03-22T01:13:43;101868.72;;;8.78;100.00
63808;BME280;49961;43.970;22.868;2024-03-22T01:14:44;101747.63;;;7.98;100.00
63808;BME280;49961;43.970;22.868;2024-03-22T01:15:44;101752.38;;;8.01;100.00
63808;BME280;49961;43.970;22.868;2024-03-22T01:16:46;101867.09;;;8.70;100.00
63808;BME280;49961;43.970;22.868;2024-03-22T01:17:46;101698.94;;;7.62;100.00
63808;BME280;49961;43.970;22.868;2024-03-22T01:18:47;101833.47;;;8.51;100.00
63808;BME280;49961;43.970;22.868;2024-03-22T01:19:48;101872.63;;;8.67;100.00
63808;BME280;49961;43.970;22.868;2024-03-22T01:20:49;101839.00;;;8.47;100.00
63808;BME280;49961;43.970;22.868;2024-03-22T01:21:49;101865.09;;;8.67;100.00
63808;BME280;49961;43.970;22.868;2024-03-22T01:22:50;101825.13;;;8.37;100.00
63808;BME280;49961;43.970;22.868;2024-03-22T01:23:52;101859.94;;;8.59;100.00
63808;BME280;49961;43.970;22.868;2024-03-22T01:24:52;101798.88;;;7.99;100.00
63808;BME280;49961;43.970;22.868;2024-03-22T01:25:53;101865.06;;;8.57;100.00
63808;BME280;49961;43.970;22.868;2024-03-22T01:26:54;101777.59;;;8.00;100.00
63808;BME280;49961;43.970;22.868;2024-03-22T01:27:55;101867.03;;;8.53;100.00
63808;BME280;49961;43.970;22.868;2024-03-22T01:28:56;101831.03;;;8.28;100.00
63808;BME280;49961;43.970;22.868;2024-03-22T01:29:56;101762.91;;;7.82;100.00
63808;BME280;49961;43.970;22.868;2024-03-22T01:30:56;101777.53;;;7.86;100.00
63808;BME280;49961;43.970;22.868;2024-03-22T01:32:00;101749.81;;;7.65;100.00
63808;BME280;49961;43.970;22.868;2024-03-22T01:33:00;101724.06;;;7.43;100.00
63808;BME280;49961;43.970;22.868;2024-03-22T01:34:01;101765.16;;;7.62;100.00
63808;BME280;49961;43.970;22.868;2024-03-22T01:35:02;101770.59;;;7.52;100.00
63808;BME280;49961;43.970;22.868;2024-03-22T01:36:02;101759.94;;;7.47;100.00
63808;BME280;49961;43.970;22.868;2024-03-22T01:37:05;101759.50;;;7.41;100.00
63808;BME280;49961;43.970;22.868;2024-03-22T01:38:06;101881.78;;;8.10;100.00
63808;BME280;49961;43.970;22.868;2024-03-22T01:39:07;101801.00;;;7.55;100.00
63808;BME280;49961;43.970;22.868;2024-03-22T01:40:07;101861.47;;;7.81;100.00
63808;BME280;49961;43.970;22.868;2024-03-22T01:41:08;101844.81;;;7.67;100.00
63808;BME280;49961;43.970;22.868;2024-03-22T01:42:08;101886.00;;;7.93;100.00
63808;BME280;49961;43.970;22.868;2024-03-22T01:43:09;101848.84;;;7.80;100.00
63808;BME280;49961;43.970;22.868;2024-03-22T01:44:09;101850.00;;;7.79;100.00
63808;BME280;49961;43.970;22.868;2024-03-22T01:45:14;101855.19;;;7.84;100.00
63808;BME280;49961;43.970;22.868;2024-03-22T01:46:15;101859.31;;;7.57;100.00
63808;BME280;49961;43.970;22.868;2024-03-22T01:47:16;101857.53;;;7.79;100.00
63808;BME280;49961;43.970;22.868;2024-03-22T01:48:17;101836.00;;;7.48;100.00
63808;BME280;49961;43.970;22.868;2024-03-22T01:49:17;101669.38;;;6.48;100.00
63808;BME280;49961;43.970;22.868;2024-03-22T01:50:18;101891.03;;;7.81;100.00
63808;BME280;49961;43.970;22.868;2024-03-22T01:51:19;101855.72;;;7.53;100.00
63808;BME280;49961;43.970;22.868;2024-03-22T01:52:19;101888.66;;;7.83;100.00
63808;BME280;49961;43.970;22.868;2024-03-22T01:53:22;101877.13;;;7.70;100.00
63808;BME280;49961;43.970;22.868;2024-03-22T01:54:23;101864.84;;;7.61;100.00
63808;BME280;49961;43.970;22.868;2024-03-22T01:55:24;101880.75;;;7.78;100.00
63808;BME280;49961;43.970;22.868;2024-03-22T01:56:24;101872.81;;;7.69;100.00
63808;BME280;49961;43.970;22.868;2024-03-22T01:57:25;101893.03;;;7.84;100.00
63808;BME280;49961;43.970;22.868;2024-03-22T01:58:25;101786.06;;;7.13;100.00
63808;BME280;49961;43.970;22.868;2024-03-22T01:59:26;101826.88;;;7.40;100.00
63808;BME280;49961;43.970;22.868;2024-03-22T02:00:27;101852.63;;;7.58;100.00
63808;BME280;49961;43.970;22.868;2024-03-22T02:01:28;101762.63;;;6.89;100.00
63808;BME280;49961;43.970;22.868;2024-03-22T02:02:28;101836.72;;;7.38;100.00
63808;BME280;49961;43.970;22.868;2024-03-22T02:03:29;101888.97;;;7.71;100.00
63808;BME280;49961;43.970;22.868;2024-03-22T02:04:29;101883.91;;;7.76;100.00
63808;BME280;49961;43.970;22.868;2024-03-22T02:05:30;101869.53;;;7.53;100.00
63808;BME280;49961;43.970;22.868;2024-03-22T02:06:30;101752.63;;;6.71;100.00
63808;BME280;49961;43.970;22.868;2024-03-22T02:07:31;101871.88;;;7.51;100.00
63808;BME280;49961;43.970;22.868;2024-03-22T02:08:31;101763.25;;;6.72;100.00
63808;BME280;49961;43.970;22.868;2024-03-22T02:09:32;101891.97;;;7.52;100.00
63808;BME280;49961;43.970;22.868;2024-03-22T02:10:32;101794.84;;;6.82;100.00
63808;BME280;49961;43.970;22.868;2024-03-22T02:11:33;101865.38;;;7.30;100.00
63808;BME280;49961;43.970;22.868;2024-03-22T02:12:34;101826.22;;;7.10;100.00
63808;BME280;49961;43.970;22.868;2024-03-22T02:13:34;101834.50;;;7.10;100.00
63808;BME280;49961;43.970;22.868;2024-03-22T02:14:35;101872.06;;;7.29;100.00
63808;BME280;49961;43.970;22.868;2024-03-22T02:15:36;101885.53;;;7.37;100.00
63808;BME280;49961;43.970;22.868;2024-03-22T02:16:36;101900.19;;;7.45;100.00
63808;BME280;49961;43.970;22.868;2024-03-22T02:17:37;101842.25;;;7.01;100.00
63808;BME280;49961;43.970;22.868;2024-03-22T02:18:37;101887.06;;;7.31;100.00
63808;BME280;49961;43.970;22.868;2024-03-22T02:19:38;101846.28;;;7.11;100.00
63808;BME280;49961;43.970;22.868;2024-03-22T02:20:38;101834.84;;;7.05;100.00
63808;BME280;49961;43.970;22.868;2024-03-22T02:21:39;101895.88;;;7.47;100.00
63808;BME280;49961;43.970;22.868;2024-03-22T02:22:39;101901.00;;;7.45;100.00
63808;BME280;49961;43.970;22.868;2024-03-22T02:23:40;101874.72;;;7.18;100.00
63808;BME280;49961;43.970;22.868;2024-03-22T02:24:41;101897.75;;;7.36;100.00
63808;BME280;49961;43.970;22.868;2024-03-22T02:25:41;101873.84;;;7.11;100.00
63808;BME280;49961;43.970;22.868;2024-03-22T02:26:42;101831.56;;;6.93;100.00
63808;BME280;49961;43.970;22.868;2024-03-22T02:27:43;101890.59;;;7.32;100.00
63808;BME280;49961;43.970;22.868;2024-03-22T02:28:43;101868.78;;;7.13;100.00
63808;BME280;49961;43.970;22.868;2024-03-22T02:29:44;101901.34;;;7.40;100.00
63808;BME280;49961;43.970;22.868;2024-03-22T02:30:44;101904.09;;;7.40;100.00
63808;BME280;49961;43.970;22.868;2024-03-22T02:31:45;101857.66;;;7.06;100.00
63808;BME280;49961;43.970;22.868;2024-03-22T02:32:45;101844.78;;;6.77;100.00
63808;BME280;49961;43.970;22.868;2024-03-22T02:33:46;101904.34;;;7.25;100.00
63808;BME280;49961;43.970;22.868;2024-03-22T02:34:46;101820.41;;;6.82;100.00
63808;BME280;49961;43.970;22.868;2024-03-22T02:35:48;101906.78;;;7.33;100.00
63808;BME280;49961;43.970;22.868;2024-03-22T02:36:48;101933.13;;;7.31;100.00
63808;BME280;49961;43.970;22.868;2024-03-22T02:37:49;101910.34;;;7.34;100.00
63808;BME280;49961;43.970;22.868;2024-03-22T02:38:50;101879.84;;;7.16;100.00
63808;BME280;49961;43.970;22.868;2024-03-22T02:39:50;101899.69;;;7.32;100.00
63808;BME280;49961;43.970;22.868;2024-03-22T02:40:52;101802.56;;;6.66;100.00
63808;BME280;49961;43.970;22.868;2024-03-22T02:41:52;101857.78;;;7.16;100.00
63808;BME280;49961;43.970;22.868;2024-03-22T02:42:53;101874.78;;;7.22;100.00
63808;BME280;49961;43.970;22.868;2024-03-22T02:43:53;101784.84;;;6.67;100.00
63808;BME280;49961;43.970;22.868;2024-03-22T02:44:54;101913.22;;;7.48;100.00
63808;BME280;49961;43.970;22.868;2024-03-22T02:45:54;101825.28;;;6.96;100.00
63808;BME280;49961;43.970;22.868;2024-03-22T02:46:55;101863.31;;;7.20;100.00
63808;BME280;49961;43.970;22.868;2024-03-22T02:47:56;101885.06;;;7.28;100.00
63808;BME280;49961;43.970;22.868;2024-03-22T02:48:56;101914.38;;;7.47;100.00
63808;BME280;49961;43.970;22.868;2024-03-22T02:49:57;101917.22;;;7.54;100.00
63808;BME280;49961;43.970;22.868;2024-03-22T02:50:57;101918.41;;;7.53;100.00
63808;BME280;49961;43.970;22.868;2024-03-22T02:51:58;101921.94;;;7.53;100.00
63808;BME280;49961;43.970;22.868;2024-03-22T02:52:58;101916.38;;;7.50;100.00
63808;BME280;49961;43.970;22.868;2024-03-22T02:53:59;101847.75;;;6.98;100.00
63808;BME280;49961;43.970;22.868;2024-03-22T02:54:59;101864.00;;;7.10;100.00
63808;BME280;49961;43.970;22.868;2024-03-22T02:56:00;101919.50;;;7.45;100.00
63808;BME280;49961;43.970;22.868;2024-03-22T02:57:01;101923.47;;;7.47;100.00
63808;BME280;49961;43.970;22.868;2024-03-22T02:58:02;101757.81;;;6.43;100.00
63808;BME280;49961;43.970;22.868;2024-03-22T02:59:03;101833.78;;;6.80;100.00
63808;BME280;49961;43.970;22.868;2024-03-22T03:00:04;101918.28;;;7.42;100.00
63808;BME280;49961;43.970;22.868;2024-03-22T03:01:05;101896.38;;;7.16;100.00
63808;BME280;49961;43.970;22.868;2024-03-22T03:02:06;101802.09;;;6.60;100.00
63808;BME280;49961;43.970;22.868;2024-03-22T03:03:07;101921.00;;;7.35;100.00
63808;BME280;49961;43.970;22.868;2024-03-22T03:04:07;101923.31;;;7.33;100.00
63808;BME280;49961;43.970;22.868;2024-03-22T03:05:08;101877.00;;;7.09;100.00
63808;BME280;49961;43.970;22.868;2024-03-22T03:06:08;101837.63;;;6.72;100.00
63808;BME280;49961;43.970;22.868;2024-03-22T03:07:10;101652.28;;;5.62;100.00
63808;BME280;49961;43.970;22.868;2024-03-22T03:08:10;101788.94;;;6.47;100.00
63808;BME280;49961;43.970;22.868;2024-03-22T03:09:12;101923.56;;;7.18;100.00
63808;BME280;49961;43.970;22.868;2024-03-22T03:10:12;101917.97;;;7.11;100.00
63808;BME280;49961;43.970;22.868;2024-03-22T03:11:14;101890.50;;;6.85;100.00
63808;BME280;49961;43.970;22.868;2024-03-22T03:12:14;101919.84;;;7.03;100.00
63808;BME280;49961;43.970;22.868;2024-03-22T03:13:15;101827.78;;;6.38;100.00
63808;BME280;49961;43.970;22.868;2024-03-22T03:14:15;101861.63;;;6.72;100.00
63808;BME280;49961;43.970;22.868;2024-03-22T03:15:17;101871.16;;;6.78;100.00
63808;BME280;49961;43.970;22.868;2024-03-22T03:16:17;101787.88;;;6.22;100.00
63808;BME280;49961;43.970;22.868;2024-03-22T03:17:18;101924.25;;;7.08;100.00
63808;BME280;49961;43.970;22.868;2024-03-22T03:18:18;101918.75;;;7.11;100.00
63808;BME280;49961;43.970;22.868;2024-03-22T03:19:19;101921.94;;;7.13;100.00
63808;BME280;49961;43.970;22.868;2024-03-22T03:20:19;101915.63;;;7.13;100.00
63808;BME280;49961;43.970;22.868;2024-03-22T03:21:20;101841.38;;;6.57;100.00
63808;BME280;49961;43.970;22.868;2024-03-22T03:22:20;101826.69;;;6.46;100.00
63808;BME280;49961;43.970;22.868;2024-03-22T03:23:21;101916.84;;;7.15;100.00
63808;BME280;49961;43.970;22.868;2024-03-22T03:24:21;101890.66;;;6.99;100.00
63808;BME280;49961;43.970;22.868;2024-03-22T03:25:22;101862.13;;;6.81;100.00
63808;BME280;49961;43.970;22.868;2024-03-22T03:26:22;101833.88;;;6.54;100.00
63808;BME280;49961;43.970;22.868;2024-03-22T03:27:23;101889.84;;;6.95;100.00
63808;BME280;49961;43.970;22.868;2024-03-22T03:28:23;101843.44;;;6.64;100.00
63808;BME280;49961;43.970;22.868;2024-03-22T03:29:26;101914.72;;;7.02;100.00
63808;BME280;49961;43.970;22.868;2024-03-22T03:30:26;101919.13;;;7.10;100.00
63808;BME280;49961;43.970;22.868;2024-03-22T03:31:27;101884.63;;;6.86;100.00
63808;BME280;49961;43.970;22.868;2024-03-22T03:32:28;101749.00;;;5.94;100.00
63808;BME280;49961;43.970;22.868;2024-03-22T03:33:28;101936.44;;;7.07;100.00
63808;BME280;49961;43.970;22.868;2024-03-22T03:34:29;101854.13;;;6.69;100.00
63808;BME280;49961;43.970;22.868;2024-03-22T03:35:29;101832.63;;;6.48;100.00
63808;BME280;49961;43.970;22.868;2024-03-22T03:36:30;101893.47;;;6.69;100.00
63808;BME280;49961;43.970;22.868;2024-03-22T03:37:30;101876.41;;;6.57;100.00
63808;BME280;49961;43.970;22.868;2024-03-22T03:38:31;101920.06;;;6.88;100.00
63808;BME280;49961;43.970;22.868;2024-03-22T03:39:31;101739.16;;;5.67;100.00
63808;BME280;49961;43.970;22.868;2024-03-22T03:40:32;101840.69;;;6.31;100.00
63808;BME280;49961;43.970;22.868;2024-03-22T03:41:32;101867.28;;;6.49;100.00
63808;BME280;49961;43.970;22.868;2024-03-22T03:42:33;101920.38;;;6.79;100.00
63808;BME280;49961;43.970;22.868;2024-03-22T03:43:33;101927.44;;;6.77;100.00
63808;BME280;49961;43.970;22.868;2024-03-22T03:44:34;101899.56;;;6.52;100.00
63808;BME280;49961;43.970;22.868;2024-03-22T03:45:37;101853.03;;;6.14;100.00
63808;BME280;49961;43.970;22.868;2024-03-22T03:46:37;101838.72;;;6.02;100.00
63808;BME280;49961;43.970;22.868;2024-03-22T03:47:38;101857.69;;;6.10;100.00
63808;BME280;49961;43.970;22.868;2024-03-22T03:48:38;101933.06;;;6.58;100.00
63808;BME280;49961;43.970;22.868;2024-03-22T03:49:39;101858.00;;;6.05;100.00
63808;BME280;49961;43.970;22.868;2024-03-22T03:50:39;101919.84;;;6.37;100.00
63808;BME280;49961;43.970;22.868;2024-03-22T03:51:40;101928.91;;;6.41;100.00
63808;BME280;49961;43.970;22.868;2024-03-22T03:52:40;101930.78;;;6.34;100.00
63808;BME280;49961;43.970;22.868;2024-03-22T03:53:41;101841.84;;;5.78;100.00
63808;BME280;49961;43.970;22.868;2024-03-22T03:54:41;101915.59;;;6.17;100.00
63808;BME280;49961;43.970;22.868;2024-03-22T03:55:42;101778.06;;;5.17;100.00
63808;BME280;49961;43.970;22.868;2024-03-22T03:56:42;101940.47;;;6.24;100.00
63808;BME280;49961;43.970;22.868;2024-03-22T03:57:43;101857.72;;;5.62;100.00
63808;BME280;49961;43.970;22.868;2024-03-22T03:58:46;101938.03;;;6.19;100.00
63808;BME280;49961;43.970;22.868;2024-03-22T03:59:46;101865.41;;;5.75;100.00
63808;BME280;49961;43.970;22.868;2024-03-22T04:00:47;101861.50;;;5.76;100.00
63808;BME280;49961;43.970;22.868;2024-03-22T04:01:47;101801.53;;;5.37;100.00
63808;BME280;49961;43.970;22.868;2024-03-22T04:02:50;101830.38;;;5.46;100.00
63808;BME280;49961;43.970;22.868;2024-03-22T04:03:51;101925.09;;;6.20;100.00
63808;BME280;49961;43.970;22.868;2024-03-22T04:04:52;101931.50;;;6.27;100.00
63808;BME280;49961;43.970;22.868;2024-03-22T04:05:57;101890.94;;;5.98;100.00
63808;BME280;49961;43.970;22.868;2024-03-22T04:06:57;101934.59;;;6.26;100.00
63808;BME280;49961;43.970;22.868;2024-03-22T04:07:58;101810.81;;;5.51;100.00
63808;BME280;49961;43.970;22.868;2024-03-22T04:08:58;101881.56;;;6.03;100.00
63808;BME280;49961;43.970;22.868;2024-03-22T04:09:59;101892.31;;;6.11;100.00
63808;BME280;49961;43.970;22.868;2024-03-22T04:11:03;101933.59;;;6.37;100.00
63808;BME280;49961;43.970;22.868;2024-03-22T04:12:04;101869.50;;;6.11;100.00
63808;BME280;49961;43.970;22.868;2024-03-22T04:13:04;101930.88;;;6.41;100.00
63808;BME280;49961;43.970;22.868;2024-03-22T04:14:05;101931.72;;;6.45;100.00
63808;BME280;49961;43.970;22.868;2024-03-22T04:15:06;101903.34;;;6.41;100.00
63808;BME280;49961;43.970;22.868;2024-03-22T04:16:08;101875.16;;;6.21;100.00
63808;BME280;49961;43.970;22.868;2024-03-22T04:17:08;101903.75;;;6.43;100.00
63808;BME280;49961;43.970;22.868;2024-03-22T04:18:08;101934.78;;;6.66;100.00
63808;BME280;49961;43.970;22.868;2024-03-22T04:19:09;101849.47;;;6.14;100.00
63808;BME280;49961;43.970;22.868;2024-03-22T04:20:10;101819.34;;;5.95;100.00
63808;BME280;49961;43.970;22.868;2024-03-22T04:21:11;101864.53;;;6.20;100.00
63808;BME280;49961;43.970;22.868;2024-03-22T04:22:12;101918.59;;;6.64;100.00
63808;BME280;49961;43.970;22.868;2024-03-22T04:23:12;101900.41;;;6.56;100.00
63808;BME280;49961;43.970;22.868;2024-03-22T04:24:13;101935.41;;;6.85;100.00
63808;BME280;49961;43.970;22.868;2024-03-22T04:25:13;101859.59;;;6.32;100.00
63808;BME280;49961;43.970;22.868;2024-03-22T04:26:15;101909.88;;;6.59;100.00
63808;BME280;49961;43.970;22.868;2024-03-22T04:27:15;101870.63;;;6.36;100.00
63808;BME280;49961;43.970;22.868;2024-03-22T04:28:16;101949.22;;;6.89;100.00
63808;BME280;49961;43.970;22.868;2024-03-22T04:29:16;101936.56;;;6.84;100.00
63808;BME280;49961;43.970;22.868;2024-03-22T04:30:17;101927.06;;;6.78;100.00
63808;BME280;49961;43.970;22.868;2024-03-22T04:31:17;101912.34;;;6.67;100.00
63808;BME280;49961;43.970;22.868;2024-03-22T04:32:18;101798.53;;;5.94;100.00
63808;BME280;49961;43.970;22.868;2024-03-22T04:33:18;101882.09;;;6.41;100.00
63808;BME280;49961;43.970;22.868;2024-03-22T04:34:19;101955.22;;;6.98;100.00
63808;BME280;49961;43.970;22.868;2024-03-22T04:35:19;101912.44;;;6.74;100.00
63808;BME280;49961;43.970;22.868;2024-03-22T04:36:20;101957.22;;;7.01;100.00
63808;BME280;49961;43.970;22.868;2024-03-22T04:37:21;101954.03;;;6.95;100.00
63808;BME280;49961;43.970;22.868;2024-03-22T04:38:22;101956.34;;;6.93;100.00
63808;BME280;49961;43.970;22.868;2024-03-22T04:39:23;101947.25;;;6.89;100.00
63808;BME280;49961;43.970;22.868;2024-03-22T04:40:24;101889.38;;;6.56;100.00
63808;BME280;49961;43.970;22.868;2024-03-22T04:41:25;101963.13;;;6.99;100.00
63808;BME280;49961;43.970;22.868;2024-03-22T04:42:26;101860.41;;;6.36;100.00
63808;BME280;49961;43.970;22.868;2024-03-22T04:43:27;101865.16;;;6.39;100.00
63808;BME280;49961;43.970;22.868;2024-03-22T04:44:28;101902.50;;;6.66;100.00
63808;BME280;49961;43.970;22.868;2024-03-22T04:45:28;101821.22;;;6.17;100.00
63808;BME280;49961;43.970;22.868;2024-03-22T04:46:29;101960.44;;;7.06;100.00
63808;BME280;49961;43.970;22.868;2024-03-22T04:47:29;101936.28;;;6.93;100.00
63808;BME280;49961;43.970;22.868;2024-03-22T04:48:30;101912.06;;;6.76;100.00
63808;BME280;49961;43.970;22.868;2024-03-22T04:49:30;101950.56;;;7.02;100.00
63808;BME280;49961;43.970;22.868;2024-03-22T04:50:31;101867.22;;;6.46;100.00
63808;BME280;49961;43.970;22.868;2024-03-22T04:51:32;101939.38;;;6.88;100.00
63808;BME280;49961;43.970;22.868;2024-03-22T04:52:32;101908.84;;;6.70;100.00
63808;BME280;49961;43.970;22.868;2024-03-22T04:53:33;101910.31;;;6.61;100.00
63808;BME280;49961;43.970;22.868;2024-03-22T04:54:33;101967.38;;;6.93;100.00
63808;BME280;49961;43.970;22.868;2024-03-22T04:55:34;101972.41;;;6.84;100.00
63808;BME280;49961;43.970;22.868;2024-03-22T04:56:34;101915.63;;;6.47;100.00
63808;BME280;49961;43.970;22.868;2024-03-22T04:57:35;101977.75;;;6.74;100.00
63808;BME280;49961;43.970;22.868;2024-03-22T04:58:35;101942.41;;;6.50;100.00
63808;BME280;49961;43.970;22.868;2024-03-22T04:59:36;101909.47;;;6.27;100.00
63808;BME280;49961;43.970;22.868;2024-03-22T05:00:36;101819.66;;;5.64;100.00
63808;BME280;49961;43.970;22.868;2024-03-22T05:01:37;101831.03;;;5.62;100.00
63808;BME280;49961;43.970;22.868;2024-03-22T05:02:37;101939.84;;;6.34;100.00
63808;BME280;49961;43.970;22.868;2024-03-22T05:03:38;101926.22;;;6.19;100.00
63808;BME280;49961;43.970;22.868;2024-03-22T05:04:38;101881.63;;;5.80;100.00
63808;BME280;49961;43.970;22.868;2024-03-22T05:05:40;101770.91;;;5.12;100.00
63808;BME280;49961;43.970;22.868;2024-03-22T05:06:40;101975.13;;;6.29;100.00
63808;BME280;49961;43.970;22.868;2024-03-22T05:07:41;101940.25;;;6.10;100.00
63808;BME280;49961;43.970;22.868;2024-03-22T05:08:41;101901.09;;;5.72;100.00
63808;BME280;49961;43.970;22.868;2024-03-22T05:09:42;101984.94;;;6.26;100.00
63808;BME280;49961;43.970;22.868;2024-03-22T05:10:42;101820.13;;;5.21;100.00
63808;BME280;49961;43.970;22.868;2024-03-22T05:11:43;101840.72;;;5.30;100.00
63808;BME280;49961;43.970;22.868;2024-03-22T05:12:46;101881.50;;;5.51;100.00
63808;BME280;49961;43.970;22.868;2024-03-22T05:13:47;101962.75;;;5.90;100.00